createdAt,value
2023-02-03T00:00:08.083Z,101071.06
2023-02-03T00:01:17.316Z,101073.59
2023-02-03T00:02:19.661Z,101066.25
2023-02-03T00:03:22.008Z,101064.56
2023-02-03T00:04:24.755Z,101069.81
2023-02-03T00:05:27.989Z,101069.81
2023-02-03T00:06:32.262Z,101067.94
2023-02-03T00:07:36.266Z,101060.59
2023-02-03T00:08:39.767Z,101064.16
2023-02-03T00:09:42.185Z,101069.41
2023-02-03T00:10:44.916Z,101067.56
2023-02-03T00:11:47.231Z,101062.09
2023-02-03T00:12:52.894Z,101062.09
2023-02-03T00:13:56.410Z,101060.00
2023-02-03T00:14:58.545Z,101061.91
2023-02-03T00:16:02.437Z,101064.63
2023-02-03T00:17:05.319Z,101060.84
2023-02-03T00:18:07.609Z,101059.78
2023-02-03T00:19:09.842Z,101057.94
2023-02-03T00:20:12.346Z,101052.47
2023-02-03T00:21:15.396Z,101064.03
2023-02-03T00:22:17.740Z,101053.09
2023-02-03T00:23:20.744Z,101060.25
2023-02-03T00:24:24.114Z,101057.53
2023-02-03T00:25:26.318Z,101050.19
2023-02-03T00:26:28.809Z,101055.66
2023-02-03T00:27:32.611Z,101056.50
2023-02-03T00:28:34.841Z,101059.22
2023-02-03T00:29:37.017Z,101054.59
2023-02-03T00:30:39.209Z,101056.28
2023-02-03T00:31:42.549Z,101059.88
2023-02-03T00:32:46.898Z,101051.69
2023-02-03T00:33:54.423Z,101050.63
2023-02-03T00:34:56.840Z,101051.50
2023-02-03T00:36:00.992Z,101049.59
2023-02-03T00:37:03.641Z,101045.00
2023-02-03T00:38:06.509Z,101046.88
2023-02-03T00:39:08.783Z,101041.19
2023-02-03T00:40:11.794Z,101043.94
2023-02-03T00:41:13.992Z,101040.38
2023-02-03T00:42:16.804Z,101030.94
2023-02-03T00:43:20.942Z,101037.22
2023-02-03T00:44:23.193Z,101036.41
2023-02-03T00:45:26.772Z,101029.03
2023-02-03T00:46:30.891Z,101020.00
2023-02-03T00:47:33.086Z,101021.91
2023-02-03T00:48:35.408Z,101023.56
2023-02-03T00:49:37.597Z,101023.56
2023-02-03T00:50:40.236Z,101009.09
2023-02-03T00:51:42.795Z,101013.50
2023-02-03T00:52:45.043Z,101009.09
2023-02-03T00:53:48.236Z,101010.78
2023-02-03T00:54:50.539Z,101009.75
2023-02-03T00:55:54.092Z,100997.94
2023-02-03T00:56:57.738Z,101000.69
2023-02-03T00:58:01.157Z,100995.22
2023-02-03T00:59:03.407Z,100995.03
2023-02-03T01:00:07.807Z,100995.03
2023-02-03T01:01:12.398Z,100989.56
2023-02-03T01:02:14.988Z,100984.97
2023-02-03T01:03:17.203Z,100990.44
2023-02-03T01:04:19.368Z,100987.69
2023-02-03T01:05:21.647Z,100987.91
2023-02-03T01:06:23.975Z,100986.81
2023-02-03T01:07:26.300Z,100978.63
2023-02-03T01:08:28.534Z,100981.38
2023-02-03T01:09:34.893Z,100980.53
2023-02-03T01:10:38.758Z,100974.03
2023-02-03T01:11:41.079Z,100971.50
2023-02-03T01:12:45.496Z,100972.34
2023-02-03T01:13:49.058Z,100963.09
2023-02-03T01:14:58.546Z,100960.56
2023-02-03T01:16:00.904Z,100953.22
2023-02-03T01:17:03.325Z,100955.13
2023-02-03T01:18:05.622Z,100949.66
2023-02-03T01:19:07.816Z,100949.81
2023-02-03T01:20:12.466Z,100937.25
2023-02-03T01:21:20.769Z,100948.34
2023-02-03T01:22:25.697Z,100943.94
2023-02-03T01:23:27.922Z,100940.56
2023-02-03T01:24:31.028Z,100944.31
2023-02-03T01:25:35.714Z,100933.59
2023-02-03T01:26:38.232Z,100929.16
2023-02-03T01:27:40.429Z,100930.22
2023-02-03T01:28:43.219Z,100930.22
2023-02-03T01:29:46.997Z,100924.94
2023-02-03T01:30:49.304Z,100925.16
2023-02-03T01:31:51.715Z,100927.25
2023-02-03T01:32:53.979Z,100917.16
2023-02-03T01:33:57.478Z,100915.25
2023-02-03T01:34:59.760Z,100910.22
2023-02-03T01:36:03.101Z,100907.47
2023-02-03T01:37:08.189Z,100908.53
2023-02-03T01:38:10.385Z,100897.59
2023-02-03T01:39:13.238Z,100890.44
2023-02-03T01:40:15.469Z,100881.41
2023-02-03T01:41:21.481Z,100887.09
2023-02-03T01:42:23.803Z,100892.53
2023-02-03T01:43:31.176Z,100896.09
2023-02-03T01:44:55.997Z,100900.06
2023-02-03T01:45:59.808Z,100903.66
2023-02-03T01:47:04.893Z,100900.06
2023-02-03T01:48:08.587Z,100904.03
2023-02-03T01:49:10.706Z,100905.94
2023-02-03T01:50:18.810Z,100898.59
2023-02-03T01:51:22.837Z,100896.06
2023-02-03T01:52:26.384Z,100899.63
2023-02-03T01:53:28.771Z,100898.78
2023-02-03T01:54:37.796Z,100887.03
2023-02-03T01:55:44.515Z,100888.06
2023-02-03T01:56:52.147Z,100891.44
2023-02-03T01:58:01.244Z,100886.16
2023-02-03T01:59:04.044Z,100886.16
2023-02-03T02:00:08.282Z,100871.69
2023-02-03T02:01:18.527Z,100874.63
2023-02-03T02:02:24.301Z,100871.03
2023-02-03T02:03:57.641Z,100859.28
2023-02-03T02:05:14.920Z,100862.84
2023-02-03T02:06:17.480Z,100860.13
2023-02-03T02:07:19.777Z,100850.44
2023-02-03T02:08:23.213Z,100841.41
2023-02-03T02:09:27.006Z,100842.25
2023-02-03T02:10:30.731Z,100842.66
2023-02-03T02:11:34.861Z,100840.13
2023-02-03T02:12:37.413Z,100837.19
2023-02-03T02:13:40.156Z,100835.50
2023-02-03T02:14:44.715Z,100831.06
2023-02-03T02:16:04.213Z,100826.47
2023-02-03T02:17:17.587Z,100830.03
2023-02-03T02:18:41.651Z,100823.75
2023-02-03T02:20:03.239Z,100826.47
2023-02-03T02:21:33.749Z,100834.66
2023-02-03T02:23:00.965Z,100822.06
2023-02-03T02:24:28.066Z,100826.84
2023-02-03T02:25:49.049Z,100831.47
2023-02-03T02:27:00.206Z,100834.22
2023-02-03T02:28:15.769Z,100826.03
2023-02-03T02:29:54.903Z,100812.38
2023-02-03T02:31:34.920Z,100809.84
2023-02-03T02:33:02.975Z,100810.69
2023-02-03T02:34:15.536Z,100814.44
2023-02-03T02:35:42.898Z,100792.81
2023-02-03T02:37:12.567Z,100791.78
2023-02-03T02:38:37.518Z,100789.25
2023-02-03T02:39:57.126Z,100788.59
2023-02-03T02:41:11.830Z,100778.56
2023-02-03T02:42:37.195Z,100783.16
2023-02-03T02:43:48.088Z,100780.41
2023-02-03T02:45:02.290Z,100777.69
2023-02-03T02:46:11.628Z,100760.47
2023-02-03T02:47:19.293Z,100764.25
2023-02-03T02:48:27.471Z,100759.63
2023-02-03T02:49:44.875Z,100752.50
2023-02-03T02:50:49.955Z,100754.38
2023-02-03T02:51:53.899Z,100754.16
2023-02-03T02:52:57.631Z,100752.28
2023-02-03T02:54:04.064Z,100744.94
2023-02-03T02:55:19.840Z,100752.75
2023-02-03T02:56:24.908Z,100729.44
2023-02-03T02:57:28.979Z,100729.44
2023-02-03T02:58:34.154Z,100724.78
2023-02-03T02:59:36.611Z,100722.72
2023-02-03T03:00:41.382Z,100726.50
2023-02-03T03:01:44.976Z,100714.53
2023-02-03T03:02:48.068Z,100720.81
2023-02-03T03:03:50.493Z,100714.31
2023-02-03T03:04:53.143Z,100705.28
2023-02-03T03:06:01.139Z,100702.38
2023-02-03T03:07:14.119Z,100693.97
2023-02-03T03:08:19.988Z,100701.97
2023-02-03T03:09:27.291Z,100696.50
2023-02-03T03:10:35.279Z,100698.19
2023-02-03T03:11:43.999Z,100686.25
2023-02-03T03:12:52.902Z,100694.22
2023-02-03T03:13:56.511Z,100694.00
2023-02-03T03:15:04.183Z,100692.09
2023-02-03T03:16:10.087Z,100686.66
2023-02-03T03:17:18.493Z,100691.72
2023-02-03T03:18:32.985Z,100687.94
2023-02-03T03:19:42.595Z,100684.16
2023-02-03T03:20:47.687Z,100678.69
2023-02-03T03:21:55.160Z,100683.94
2023-02-03T03:23:05.987Z,100685.63
2023-02-03T03:24:13.129Z,100681.03
2023-02-03T03:25:22.587Z,100681.66
2023-02-03T03:26:50.156Z,100677.88
2023-02-03T03:27:59.185Z,100684.19
2023-02-03T03:29:06.488Z,100681.28
2023-02-03T03:30:16.578Z,100674.75
2023-02-03T03:31:20.658Z,100673.69
2023-02-03T03:32:23.455Z,100678.13
2023-02-03T03:33:26.036Z,100668.91
2023-02-03T03:34:29.552Z,100665.13
2023-02-03T03:36:05.514Z,100675.63
2023-02-03T03:37:15.078Z,100664.50
2023-02-03T03:38:33.467Z,100667.88
2023-02-03T03:39:57.442Z,100663.03
2023-02-03T03:41:05.966Z,100668.94
2023-02-03T03:42:18.476Z,100655.94
2023-02-03T03:43:26.038Z,100665.59
2023-02-03T03:44:38.088Z,100655.28
2023-02-03T03:45:49.598Z,100666.00
2023-02-03T03:46:59.831Z,100665.63
2023-02-03T03:48:17.803Z,100663.28
2023-02-03T03:49:22.326Z,100658.47
2023-02-03T03:50:32.598Z,100663.50
2023-02-03T03:51:40.896Z,100654.28
2023-02-03T03:52:46.733Z,100656.63
2023-02-03T03:53:52.100Z,100654.50
2023-02-03T03:54:55.963Z,100652.00
2023-02-03T03:56:02.122Z,100650.13
2023-02-03T03:57:15.251Z,100642.31
2023-02-03T03:58:23.197Z,100646.31
2023-02-03T03:59:28.556Z,100632.47
2023-02-03T04:00:34.867Z,100631.22
2023-02-03T04:01:41.209Z,100617.13
2023-02-03T04:02:50.802Z,100624.88
2023-02-03T04:03:59.846Z,100612.50
2023-02-03T04:05:03.542Z,100611.25
2023-02-03T04:06:07.090Z,100603.66
2023-02-03T04:07:12.342Z,100599.66
2023-02-03T04:08:14.621Z,100595.66
2023-02-03T04:09:17.660Z,100582.44
2023-02-03T04:10:30.588Z,100584.72
2023-02-03T04:11:51.520Z,100578.22
2023-02-03T04:12:53.691Z,100571.25
2023-02-03T04:13:55.940Z,100571.03
2023-02-03T04:14:58.158Z,100571.69
2023-02-03T04:16:00.784Z,100568.50
2023-02-03T04:17:03.084Z,100572.72
2023-02-03T04:18:06.836Z,100573.97
2023-02-03T04:19:09.139Z,100568.09
2023-02-03T04:20:12.206Z,100573.34
2023-02-03T04:21:14.745Z,100557.56
2023-02-03T04:22:18.227Z,100568.06
2023-02-03T04:23:21.613Z,100558.59
2023-02-03T04:24:24.097Z,100556.28
2023-02-03T04:25:26.623Z,100560.69
2023-02-03T04:26:28.883Z,100560.25
2023-02-03T04:27:31.145Z,100559.00
2023-02-03T04:28:33.340Z,100555.00
2023-02-03T04:29:35.595Z,100561.06
2023-02-03T04:30:37.802Z,100570.13
2023-02-03T04:31:41.635Z,100565.09
2023-02-03T04:32:45.186Z,100564.63
2023-02-03T04:33:47.467Z,100562.31
2023-02-03T04:34:51.624Z,100565.66
2023-02-03T04:35:53.803Z,100571.78
2023-02-03T04:36:56.043Z,100572.19
2023-02-03T04:37:58.297Z,100572.78
2023-02-03T04:39:00.645Z,100567.09
2023-02-03T04:40:03.481Z,100569.63
2023-02-03T04:41:05.731Z,100558.25
2023-02-03T04:42:08.063Z,100571.94
2023-02-03T04:43:10.323Z,100563.50
2023-02-03T04:44:13.647Z,100561.19
2023-02-03T04:45:15.913Z,100558.44
2023-02-03T04:46:19.127Z,100560.94
2023-02-03T04:47:21.347Z,100558.63
2023-02-03T04:48:23.925Z,100551.00
2023-02-03T04:49:27.397Z,100552.47
2023-02-03T04:50:31.134Z,100555.84
2023-02-03T04:51:33.748Z,100563.00
2023-02-03T04:52:35.927Z,100552.88
2023-02-03T04:53:38.129Z,100556.25
2023-02-03T04:54:40.433Z,100554.97
2023-02-03T04:55:46.951Z,100564.66
2023-02-03T04:56:49.375Z,100560.88
2023-02-03T04:57:56.245Z,100560.44
2023-02-03T04:58:58.462Z,100564.63
2023-02-03T05:00:12.107Z,100558.09
2023-02-03T05:01:15.412Z,100556.81
2023-02-03T05:02:17.771Z,100559.31
2023-02-03T05:03:20.276Z,100562.66
2023-02-03T05:04:24.154Z,100554.25
2023-02-03T05:05:26.368Z,100554.03
2023-02-03T05:06:30.185Z,100548.34
2023-02-03T05:07:32.438Z,100561.56
2023-02-03T05:08:34.661Z,100551.69
2023-02-03T05:09:36.936Z,100543.06
2023-02-03T05:10:39.843Z,100552.09
2023-02-03T05:11:42.296Z,100553.56
2023-02-03T05:12:44.580Z,100543.84
2023-02-03T05:13:46.801Z,100552.06
2023-02-03T05:14:49.191Z,100541.72
2023-02-03T05:15:51.360Z,100540.69
2023-02-03T05:16:53.910Z,100533.28
2023-02-03T05:17:56.139Z,100530.13
2023-02-03T05:18:58.295Z,100536.66
2023-02-03T05:20:00.482Z,100540.00
2023-02-03T05:21:02.883Z,100540.63
2023-02-03T05:22:05.317Z,100536.84
2023-02-03T05:23:07.648Z,100527.56
2023-02-03T05:24:09.959Z,100522.69
2023-02-03T05:25:12.820Z,100519.69
2023-02-03T05:26:15.097Z,100521.38
2023-02-03T05:27:17.888Z,100507.69
2023-02-03T05:28:20.098Z,100513.16
2023-02-03T05:29:22.385Z,100513.16
2023-02-03T05:30:24.791Z,100505.56
2023-02-03T05:31:27.200Z,100508.31
2023-02-03T05:32:29.460Z,100488.91
2023-02-03T05:33:31.788Z,100495.22
2023-02-03T05:34:34.051Z,100485.09
2023-02-03T05:35:36.274Z,100488.69
2023-02-03T05:36:38.455Z,100495.84
2023-02-03T05:37:42.118Z,100493.09
2023-02-03T05:38:44.319Z,100500.25
2023-02-03T05:39:46.721Z,100510.13
2023-02-03T05:41:08.631Z,100490.94
2023-02-03T05:42:10.806Z,100500.03
2023-02-03T05:43:13.056Z,100498.13
2023-02-03T05:44:15.328Z,100511.81
2023-02-03T05:45:17.627Z,100496.25
2023-02-03T05:46:20.001Z,100504.47
2023-02-03T05:47:23.710Z,100493.50
2023-02-03T05:48:25.992Z,100494.31
2023-02-03T05:49:28.217Z,100488.63
2023-02-03T05:50:35.709Z,100491.34
2023-02-03T05:51:47.095Z,100502.31
2023-02-03T05:52:52.304Z,100506.75
2023-02-03T05:53:54.491Z,100521.28
2023-02-03T05:54:56.892Z,100512.00
2023-02-03T05:55:59.042Z,100513.91
2023-02-03T05:57:01.272Z,100519.97
2023-02-03T05:58:04.379Z,100512.84
2023-02-03T05:59:09.218Z,100498.28
2023-02-03T06:00:12.058Z,100501.66
2023-02-03T06:01:14.306Z,100505.47
2023-02-03T06:02:16.509Z,100509.88
2023-02-03T06:03:18.858Z,100510.72
2023-02-03T06:04:21.279Z,100505.22
2023-02-03T06:05:24.614Z,100502.25
2023-02-03T06:06:33.115Z,100505.00
2023-02-03T06:07:35.647Z,100494.88
2023-02-03T06:08:37.819Z,100490.22
2023-02-03T06:09:39.988Z,100504.78
2023-02-03T06:10:42.175Z,100506.69
2023-02-03T06:11:44.448Z,100508.59
2023-02-03T06:12:47.168Z,100505.00
2023-02-03T06:13:49.319Z,100494.66
2023-02-03T06:14:51.532Z,100498.22
2023-02-03T06:15:54.313Z,100494.44
2023-02-03T06:16:56.466Z,100496.34
2023-02-03T06:17:58.656Z,100493.38
2023-02-03T06:19:01.152Z,100488.94
2023-02-03T06:20:06.126Z,100492.31
2023-02-03T06:21:08.688Z,100488.72
2023-02-03T06:22:11.791Z,100475.88
2023-02-03T06:23:14.058Z,100466.34
2023-02-03T06:24:16.394Z,100470.16
2023-02-03T06:25:18.691Z,100472.91
2023-02-03T06:26:20.885Z,100468.25
2023-02-03T06:27:23.238Z,100468.00
2023-02-03T06:28:27.383Z,100471.84
2023-02-03T06:29:29.663Z,100458.94
2023-02-03T06:30:32.826Z,100459.78
2023-02-03T06:31:35.212Z,100466.94
2023-02-03T06:32:38.893Z,100468.63
2023-02-03T06:33:42.306Z,100464.22
2023-02-03T06:34:44.540Z,100457.66
2023-02-03T06:35:49.186Z,100461.84
2023-02-03T06:36:52.434Z,100466.50
2023-02-03T06:37:55.053Z,100462.69
2023-02-03T06:38:58.434Z,100463.53
2023-02-03T06:40:00.655Z,100455.91
2023-02-03T06:41:03.434Z,100455.91
2023-02-03T06:42:06.790Z,100452.09
2023-02-03T06:43:09.398Z,100455.91
2023-02-03T06:44:15.686Z,100450.22
2023-02-03T06:45:18.302Z,100452.72
2023-02-03T06:46:20.597Z,100460.09
2023-02-03T06:47:22.883Z,100441.75
2023-02-03T06:48:25.473Z,100447.25
2023-02-03T06:49:27.677Z,100447.00
2023-02-03T06:50:30.268Z,100441.53
2023-02-03T06:51:32.669Z,100434.38
2023-02-03T06:52:34.854Z,100438.56
2023-02-03T06:53:37.121Z,100433.31
2023-02-03T06:54:39.353Z,100438.78
2023-02-03T06:55:41.626Z,100424.25
2023-02-03T06:56:43.979Z,100422.34
2023-02-03T06:57:47.785Z,100416.84
2023-02-03T06:58:49.962Z,100412.19
2023-02-03T06:59:52.263Z,100405.66
2023-02-03T07:00:57.630Z,100419.34
2023-02-03T07:01:59.887Z,100413.88
2023-02-03T07:03:03.078Z,100410.91
2023-02-03T07:04:06.015Z,100412.34
2023-02-03T07:05:08.499Z,100401.63
2023-02-03T07:06:10.744Z,100399.94
2023-02-03T07:07:14.880Z,100397.00
2023-02-03T07:08:17.106Z,100389.81
2023-02-03T07:09:19.405Z,100392.31
2023-02-03T07:10:21.865Z,100390.66
2023-02-03T07:11:24.891Z,100390.22
2023-02-03T07:12:27.460Z,100394.84
2023-02-03T07:13:29.920Z,100383.03
2023-02-03T07:14:32.305Z,100385.56
2023-02-03T07:15:35.743Z,100374.56
2023-02-03T07:16:37.960Z,100381.97
2023-02-03T07:17:40.133Z,100368.28
2023-02-03T07:18:47.407Z,100365.53
2023-02-03T07:19:50.320Z,100372.91
2023-02-03T07:20:53.178Z,100352.88
2023-02-03T07:21:55.891Z,100364.69
2023-02-03T07:22:58.768Z,100369.56
2023-02-03T07:24:03.218Z,100372.31
2023-02-03T07:25:05.794Z,100364.69
2023-02-03T07:26:08.814Z,100376.50
2023-02-03T07:27:11.011Z,100369.69
2023-02-03T07:28:13.301Z,100379.00
2023-02-03T07:29:15.615Z,100368.84
2023-02-03T07:30:17.850Z,100376.84
2023-02-03T07:31:20.752Z,100370.31
2023-02-03T07:32:23.064Z,100345.84
2023-02-03T07:33:25.344Z,100368.63
2023-02-03T07:34:27.636Z,100374.09
2023-02-03T07:35:29.888Z,100377.47
2023-02-03T07:36:32.799Z,100374.72
2023-02-03T07:37:34.974Z,100362.91
2023-02-03T07:38:38.629Z,100371.75
2023-02-03T07:39:40.983Z,100378.91
2023-02-03T07:40:44.253Z,100367.72
2023-02-03T07:41:46.586Z,100360.31
2023-02-03T07:42:49.783Z,100372.97
2023-02-03T07:43:52.001Z,100375.25
2023-02-03T07:44:54.164Z,100375.25
2023-02-03T07:45:56.361Z,100371.66
2023-02-03T07:46:58.619Z,100369.53
2023-02-03T07:48:01.799Z,100374.16
2023-02-03T07:49:05.940Z,100366.56
2023-02-03T07:50:08.964Z,100361.91
2023-02-03T07:51:11.383Z,100361.69
2023-02-03T07:52:13.630Z,100355.13
2023-02-03T07:53:16.032Z,100360.59
2023-02-03T07:54:18.297Z,100355.97
2023-02-03T07:55:21.813Z,100354.91
2023-02-03T07:56:25.827Z,100364.78
2023-02-03T07:57:29.634Z,100355.72
2023-02-03T07:58:32.678Z,100359.31
2023-02-03T07:59:34.920Z,100368.38
2023-02-03T08:00:38.833Z,100345.34
2023-02-03T08:01:41.075Z,100360.97
2023-02-03T08:02:43.836Z,100347.50
2023-02-03T08:03:46.097Z,100349.19
2023-02-03T08:04:50.067Z,100348.09
2023-02-03T08:05:53.639Z,100332.72
2023-02-03T08:06:56.142Z,100345.34
2023-02-03T08:07:59.584Z,100339.84
2023-02-03T08:09:01.818Z,100342.59
2023-02-03T08:10:04.576Z,100340.72
2023-02-03T08:11:07.141Z,100345.13
2023-02-03T08:12:09.636Z,100337.72
2023-02-03T08:13:11.839Z,100337.97
2023-02-03T08:14:14.615Z,100338.81
2023-02-03T08:15:17.473Z,100342.41
2023-02-03T08:16:19.899Z,100345.97
2023-02-03T08:17:22.612Z,100334.75
2023-02-03T08:18:26.333Z,100340.47
2023-02-03T08:19:28.847Z,100343.22
2023-02-03T08:20:31.295Z,100334.16
2023-02-03T08:21:33.640Z,100330.34
2023-02-03T08:22:36.154Z,100333.06
2023-02-03T08:23:38.574Z,100331.19
2023-02-03T08:24:44.930Z,100322.09
2023-02-03T08:25:51.474Z,100334.75
2023-02-03T08:26:55.237Z,100324.84
2023-02-03T08:27:57.623Z,100333.94
2023-02-03T08:28:59.830Z,100331.44
2023-02-03T08:30:02.162Z,100338.56
2023-02-03T08:31:10.674Z,100328.69
2023-02-03T08:32:18.790Z,100332.25
2023-02-03T08:33:23.102Z,100323.19
2023-02-03T08:34:25.884Z,100327.81
2023-02-03T08:35:28.510Z,100322.97
2023-02-03T08:36:30.692Z,100324.03
2023-02-03T08:37:33.020Z,100313.03
2023-02-03T08:38:35.212Z,100312.44
2023-02-03T08:39:38.081Z,100309.47
2023-02-03T08:40:40.283Z,100320.44
2023-02-03T08:41:42.516Z,100321.28
2023-02-03T08:42:44.744Z,100294.91
2023-02-03T08:43:47.136Z,100310.31
2023-02-03T08:44:52.456Z,100316.84
2023-02-03T08:45:54.761Z,100310.31
2023-02-03T08:46:57.666Z,100308.38
2023-02-03T08:48:00.542Z,100305.63
2023-02-03T08:49:03.756Z,100318.28
2023-02-03T08:50:11.879Z,100314.97
2023-02-03T08:51:16.550Z,100317.72
2023-02-03T08:52:20.241Z,100313.88
2023-02-03T08:53:22.556Z,100311.38
2023-02-03T08:54:26.280Z,100319.59
2023-02-03T08:55:28.942Z,100317.47
2023-02-03T08:56:34.285Z,100312.22
2023-02-03T08:57:37.527Z,100302.31
2023-02-03T08:58:40.221Z,100313.28
2023-02-03T08:59:43.866Z,100311.38
2023-02-03T09:00:49.135Z,100308.88
2023-02-03T09:01:53.629Z,100312.44
2023-02-03T09:02:55.829Z,100310.78
2023-02-03T09:03:58.140Z,100289.66
2023-02-03T09:05:00.635Z,100299.81
2023-02-03T09:06:03.568Z,100305.28
2023-02-03T09:07:05.867Z,100288.84
2023-02-03T09:08:08.150Z,100285.22
2023-02-03T09:09:11.105Z,100287.97
2023-02-03T09:10:13.370Z,100289.66
2023-02-03T09:11:18.471Z,100287.75
2023-02-03T09:12:23.337Z,100276.78
2023-02-03T09:13:25.763Z,100278.69
2023-02-03T09:14:29.706Z,100278.44
2023-02-03T09:15:32.052Z,100274.88
2023-02-03T09:16:35.942Z,100276.56
2023-02-03T09:17:41.058Z,100261.16
2023-02-03T09:18:45.736Z,100260.31
2023-02-03T09:19:49.348Z,100268.34
2023-02-03T09:20:51.542Z,100260.09
2023-02-03T09:21:53.787Z,100266.41
2023-02-03T09:22:59.671Z,100253.50
2023-02-03T09:24:03.854Z,100248.88
2023-02-03T09:25:07.152Z,100246.38
2023-02-03T09:26:12.431Z,100253.50
2023-02-03T09:27:15.220Z,100246.13
2023-02-03T09:28:18.464Z,100250.78
2023-02-03T09:29:20.870Z,100246.97
2023-02-03T09:30:23.460Z,100251.63
2023-02-03T09:31:26.042Z,100248.03
2023-02-03T09:32:28.270Z,100245.28
2023-02-03T09:33:30.939Z,100231.81
2023-02-03T09:34:33.228Z,100241.72
2023-02-03T09:35:35.776Z,100237.06
2023-02-03T09:36:38.124Z,100229.69
2023-02-03T09:37:42.628Z,100221.44
2023-02-03T09:38:44.893Z,100236.00
2023-02-03T09:39:48.997Z,100215.72
2023-02-03T09:41:12.115Z,100215.97
2023-02-03T09:42:29.954Z,100202.25
2023-02-03T09:43:33.678Z,100191.28
2023-02-03T09:44:48.916Z,100185.56
2023-02-03T09:45:51.740Z,100183.03
2023-02-03T09:47:00.743Z,100165.72
2023-02-03T09:48:14.263Z,100177.56
2023-02-03T09:49:42.803Z,100182.19
2023-02-03T09:50:46.619Z,100174.81
2023-02-03T09:52:01.163Z,100169.34
2023-02-03T09:53:13.929Z,100166.59
2023-02-03T09:54:21.929Z,100168.47
2023-02-03T09:55:34.115Z,100156.44
2023-02-03T09:56:37.135Z,100170.41
2023-02-03T09:57:48.231Z,100162.78
2023-02-03T09:58:50.584Z,100154.75
2023-02-03T09:59:55.987Z,100154.75
2023-02-03T10:01:05.793Z,100149.28
2023-02-03T10:02:40.908Z,100155.63
2023-02-03T10:03:51.270Z,100159.41
2023-02-03T10:05:16.900Z,100167.66
2023-02-03T10:06:37.042Z,100170.16
2023-02-03T10:07:47.072Z,100166.59
2023-02-03T10:09:21.968Z,100158.94
2023-02-03T10:10:39.477Z,100147.13
2023-02-03T10:11:44.377Z,100146.06
2023-02-03T10:13:13.849Z,100146.06
2023-02-03T10:14:35.730Z,100146.06
2023-02-03T10:15:43.642Z,100140.84
2023-02-03T10:16:56.490Z,100141.41
2023-02-03T10:18:04.863Z,100138.66
2023-02-03T10:19:16.019Z,100124.94
2023-02-03T10:20:24.202Z,100132.59
2023-02-03T10:21:35.312Z,100135.94
2023-02-03T10:22:49.899Z,100132.94
2023-02-03T10:23:55.429Z,100112.91
2023-02-03T10:25:15.929Z,100128.31
2023-02-03T10:26:23.081Z,100134.03
2023-02-03T10:27:26.066Z,100123.88
2023-02-03T10:28:31.977Z,100136.53
2023-02-03T10:29:43.644Z,100115.41
2023-02-03T10:30:54.328Z,100111.84
2023-02-03T10:31:59.060Z,100117.09
2023-02-03T10:33:11.173Z,100101.69
2023-02-03T10:34:16.506Z,100095.38
2023-02-03T10:35:21.149Z,100110.53
2023-02-03T10:36:30.968Z,100097.63
2023-02-03T10:37:43.125Z,100103.97
2023-02-03T10:39:09.854Z,100101.81
2023-02-03T10:40:15.096Z,100087.28
2023-02-03T10:41:21.871Z,100090.00
2023-02-03T10:42:24.627Z,100086.22
2023-02-03T10:43:50.772Z,100078.78
2023-02-03T10:44:59.705Z,100083.47
2023-02-03T10:46:02.533Z,100072.25
2023-02-03T10:47:35.814Z,100078.56
2023-02-03T10:48:38.008Z,100078.31
2023-02-03T10:49:42.557Z,100068.19
2023-02-03T10:50:48.907Z,100077.47
2023-02-03T10:52:00.582Z,100058.63
2023-02-03T10:53:27.010Z,100064.38
2023-02-03T10:54:35.248Z,100065.44
2023-02-03T10:55:37.591Z,100061.63
2023-02-03T10:56:41.038Z,100082.47
2023-02-03T10:57:43.343Z,100058.88
2023-02-03T10:58:58.640Z,100053.16
2023-02-03T11:00:24.721Z,100057.31
2023-02-03T11:01:38.865Z,100057.06
2023-02-03T11:02:42.122Z,100058.75
2023-02-03T11:03:56.951Z,100072.22
2023-02-03T11:05:12.265Z,100078.28
2023-02-03T11:06:19.309Z,100063.75
2023-02-03T11:07:27.228Z,100067.09
2023-02-03T11:08:30.969Z,100063.25
2023-02-03T11:09:37.651Z,100061.94
2023-02-03T11:10:43.377Z,100053.69
2023-02-03T11:11:45.566Z,100048.47
2023-02-03T11:12:47.775Z,100038.34
2023-02-03T11:13:56.501Z,100048.22
2023-02-03T11:15:05.651Z,100044.41
2023-02-03T11:16:16.373Z,100057.88
2023-02-03T11:17:23.174Z,100051.06
2023-02-03T11:19:01.293Z,100054.66
2023-02-03T11:20:14.677Z,100039.88
2023-02-03T11:21:23.355Z,100041.31
2023-02-03T11:22:37.084Z,100021.84
2023-02-03T11:23:49.734Z,100034.72
2023-02-03T11:24:52.134Z,100028.16
2023-02-03T11:25:54.426Z,100031.50
2023-02-03T11:27:04.969Z,100010.38
2023-02-03T11:28:11.391Z,100021.34
2023-02-03T11:29:23.858Z,100021.94
2023-02-03T11:30:31.604Z,100042.81
2023-02-03T11:31:37.783Z,100046.41
2023-02-03T11:32:43.336Z,100042.59
2023-02-03T11:33:54.323Z,100056.88
2023-02-03T11:35:14.564Z,100044.00
2023-02-03T11:36:18.990Z,100045.66
2023-02-03T11:37:28.451Z,100043.75
2023-02-03T11:38:39.487Z,100050.94
2023-02-03T11:39:41.731Z,100055.31
2023-02-03T11:40:43.956Z,100031.47
2023-02-03T11:41:47.790Z,100035.63
2023-02-03T11:42:50.093Z,100043.63
2023-02-03T11:43:55.962Z,100035.13
2023-02-03T11:45:27.259Z,100033.25
2023-02-03T11:46:29.569Z,100041.47
2023-02-03T11:47:31.858Z,100020.34
2023-02-03T11:48:44.637Z,100032.13
2023-02-03T11:49:52.653Z,100023.66
2023-02-03T11:51:08.776Z,100004.69
2023-02-03T11:52:33.265Z,100022.00
2023-02-03T11:54:19.281Z,100029.41
2023-02-03T11:55:33.030Z,100004.69
2023-02-03T11:57:00.203Z,100003.84
2023-02-03T11:58:30.285Z,99972.06
2023-02-03T11:59:50.440Z,99959.16
2023-02-03T12:01:03.727Z,99941.88
2023-02-03T12:02:15.677Z,99934.44
2023-02-03T12:03:31.022Z,99940.81
2023-02-03T12:05:11.372Z,99934.22
2023-02-03T12:06:37.412Z,99909.53
2023-02-03T12:07:54.782Z,99898.53
2023-02-03T12:09:12.269Z,99895.53
2023-02-03T12:10:45.599Z,99872.50
2023-02-03T12:12:00.160Z,99893.34
2023-02-03T12:13:14.562Z,99907.69
2023-02-03T12:14:42.574Z,99924.75
2023-02-03T12:15:50.647Z,99935.25
2023-02-03T12:17:13.355Z,99937.72
2023-02-03T12:18:26.843Z,99950.41
2023-02-03T12:19:48.259Z,99942.75
2023-02-03T12:21:31.272Z,99943.56
2023-02-03T12:22:43.714Z,99966.97
2023-02-03T12:24:05.335Z,99948.00
2023-02-03T12:25:31.897Z,99942.50
2023-02-03T12:26:50.873Z,99959.53
2023-02-03T12:28:05.912Z,99948.56
2023-02-03T12:29:23.689Z,99942.03
2023-02-03T12:30:33.205Z,99930.22
2023-02-03T12:32:05.719Z,99910.09
2023-02-03T12:33:21.491Z,99932.06
2023-02-03T12:34:30.493Z,99941.19
2023-02-03T12:35:39.825Z,99939.50
2023-02-03T12:36:53.805Z,99933.78
2023-02-03T12:38:05.745Z,99935.72
2023-02-03T12:39:19.140Z,99931.03
2023-02-03T12:40:43.199Z,99945.59
2023-02-03T12:41:59.530Z,99923.63